sensor_id;sensor_type;location;lat;lon;timestamp;P1;durP1;ratioP1;P2;durP2;ratioP2
65033;SDS011;51601;51.356;12.458;2023-10-19T00:03:22;19.55;;;9.25;;
65033;SDS011;51601;51.356;12.458;2023-10-19T00:07:42;20.63;;;9.43;;
65033;SDS011;51601;51.356;12.458;2023-10-19T00:12:02;16.77;;;9.27;;
65033;SDS011;51601;51.356;12.458;2023-10-19T00:16:21;16.42;;;9.35;;
65033;SDS011;51601;51.356;12.458;2023-10-19T00:20:46;19.13;;;9.95;;
65033;SDS011;51601;51.356;12.458;2023-10-19T00:25:10;17.60;;;9.57;;
65033;SDS011;51601;51.356;12.458;2023-10-19T00:29:32;17.23;;;9.02;;
65033;SDS011;51601;51.356;12.458;2023-10-19T00:33:55;20.15;;;9.98;;
65033;SDS011;51601;51.356;12.458;2023-10-19T00:38:13;20.40;;;9.07;;
65033;SDS011;51601;51.356;12.458;2023-10-19T00:42:56;12.60;;;6.37;;
65033;SDS011;51601;51.356;12.458;2023-10-19T00:47:15;16.85;;;9.02;;
65033;SDS011;51601;51.356;12.458;2023-10-19T00:51:35;17.42;;;9.48;;
65033;SDS011;51601;51.356;12.458;2023-10-19T00:56:11;16.00;;;9.43;;
65033;SDS011;51601;51.356;12.458;2023-10-19T01:00:33;16.73;;;9.52;;
65033;SDS011;51601;51.356;12.458;2023-10-19T01:04:53;18.85;;;10.07;;
65033;SDS011;51601;51.356;12.458;2023-10-19T01:09:15;15.23;;;8.80;;
65033;SDS011;51601;51.356;12.458;2023-10-19T01:13:36;18.48;;;10.52;;
65033;SDS011;51601;51.356;12.458;2023-10-19T01:17:54;16.02;;;8.68;;
65033;SDS011;51601;51.356;12.458;2023-10-19T01:22:16;17.63;;;9.57;;
65033;SDS011;51601;51.356;12.458;2023-10-19T01:26:34;18.83;;;9.87;;
65033;SDS011;51601;51.356;12.458;2023-10-19T01:30:54;18.25;;;9.93;;
65033;SDS011;51601;51.356;12.458;2023-10-19T01:35:12;18.00;;;9.40;;
65033;SDS011;51601;51.356;12.458;2023-10-19T01:39:31;27.00;;;9.90;;
65033;SDS011;51601;51.356;12.458;2023-10-19T01:43:53;17.80;;;9.15;;
65033;SDS011;51601;51.356;12.458;2023-10-19T01:48:22;20.05;;;10.02;;
65033;SDS011;51601;51.356;12.458;2023-10-19T01:52:49;18.00;;;8.70;;
65033;SDS011;51601;51.356;12.458;2023-10-19T01:57:07;16.05;;;9.50;;
65033;SDS011;51601;51.356;12.458;2023-10-19T02:01:26;13.77;;;8.40;;
65033;SDS011;51601;51.356;12.458;2023-10-19T02:05:49;18.33;;;8.48;;
65033;SDS011;51601;51.356;12.458;2023-10-19T02:10:17;23.07;;;10.00;;
65033;SDS011;51601;51.356;12.458;2023-10-19T02:14:35;19.35;;;10.63;;
65033;SDS011;51601;51.356;12.458;2023-10-19T02:18:54;19.38;;;10.07;;
65033;SDS011;51601;51.356;12.458;2023-10-19T02:23:14;15.70;;;8.70;;
65033;SDS011;51601;51.356;12.458;2023-10-19T02:27:32;22.05;;;11.45;;
65033;SDS011;51601;51.356;12.458;2023-10-19T02:31:50;23.08;;;11.45;;
65033;SDS011;51601;51.356;12.458;2023-10-19T02:36:09;22.20;;;11.23;;
65033;SDS011;51601;51.356;12.458;2023-10-19T02:40:32;22.65;;;11.93;;
65033;SDS011;51601;51.356;12.458;2023-10-19T02:44:53;23.02;;;12.75;;
65033;SDS011;51601;51.356;12.458;2023-10-19T02:49:14;21.58;;;10.25;;
65033;SDS011;51601;51.356;12.458;2023-10-19T02:53:37;26.83;;;13.03;;
65033;SDS011;51601;51.356;12.458;2023-10-19T02:57:57;24.45;;;11.23;;
65033;SDS011;51601;51.356;12.458;2023-10-19T03:02:15;27.90;;;12.93;;
65033;SDS011;51601;51.356;12.458;2023-10-19T03:06:33;26.87;;;14.07;;
65033;SDS011;51601;51.356;12.458;2023-10-19T03:10:52;21.58;;;10.82;;
65033;SDS011;51601;51.356;12.458;2023-10-19T03:15:21;24.45;;;12.55;;
65033;SDS011;51601;51.356;12.458;2023-10-19T03:19:39;23.63;;;11.27;;
65033;SDS011;51601;51.356;12.458;2023-10-19T03:23:57;23.73;;;12.65;;
65033;SDS011;51601;51.356;12.458;2023-10-19T03:28:20;21.27;;;10.63;;
65033;SDS011;51601;51.356;12.458;2023-10-19T03:32:43;29.73;;;13.35;;
65033;SDS011;51601;51.356;12.458;2023-10-19T03:37:01;33.17;;;15.00;;
65033;SDS011;51601;51.356;12.458;2023-10-19T03:41:22;35.33;;;16.42;;
65033;SDS011;51601;51.356;12.458;2023-10-19T03:45:44;30.73;;;14.45;;
65033;SDS011;51601;51.356;12.458;2023-10-19T03:50:10;29.43;;;14.20;;
65033;SDS011;51601;51.356;12.458;2023-10-19T03:54:38;32.28;;;15.98;;
65033;SDS011;51601;51.356;12.458;2023-10-19T03:58:59;36.42;;;16.30;;
65033;SDS011;51601;51.356;12.458;2023-10-19T04:03:18;25.13;;;12.13;;
65033;SDS011;51601;51.356;12.458;2023-10-19T04:07:41;28.58;;;12.93;;
65033;SDS011;51601;51.356;12.458;2023-10-19T04:11:59;31.77;;;13.85;;
65033;SDS011;51601;51.356;12.458;2023-10-19T04:16:17;31.40;;;13.95;;
65033;SDS011;51601;51.356;12.458;2023-10-19T04:20:37;41.37;;;17.37;;
65033;SDS011;51601;51.356;12.458;2023-10-19T04:25:15;42.25;;;17.63;;
65033;SDS011;51601;51.356;12.458;2023-10-19T04:29:36;23.23;;;10.48;;
65033;SDS011;51601;51.356;12.458;2023-10-19T04:33:57;48.50;;;18.90;;
65033;SDS011;51601;51.356;12.458;2023-10-19T04:38:25;45.17;;;18.67;;
65033;SDS011;51601;51.356;12.458;2023-10-19T04:42:45;48.70;;;17.40;;
65033;SDS011;51601;51.356;12.458;2023-10-19T04:47:03;53.27;;;19.30;;
65033;SDS011;51601;51.356;12.458;2023-10-19T04:51:21;61.92;;;20.65;;
65033;SDS011;51601;51.356;12.458;2023-10-19T04:55:41;77.30;;;26.20;;
65033;SDS011;51601;51.356;12.458;2023-10-19T05:00:01;45.33;;;16.83;;
65033;SDS011;51601;51.356;12.458;2023-10-19T05:04:22;82.33;;;21.20;;
65033;SDS011;51601;51.356;12.458;2023-10-19T05:08:40;63.20;;;21.33;;
65033;SDS011;51601;51.356;12.458;2023-10-19T05:12:59;54.05;;;20.35;;
65033;SDS011;51601;51.356;12.458;2023-10-19T05:17:19;64.87;;;21.87;;
65033;SDS011;51601;51.356;12.458;2023-10-19T05:21:37;50.05;;;17.98;;
65033;SDS011;51601;51.356;12.458;2023-10-19T05:25:59;38.75;;;13.18;;
65033;SDS011;51601;51.356;12.458;2023-10-19T05:30:21;56.10;;;18.57;;
65033;SDS011;51601;51.356;12.458;2023-10-19T05:34:41;65.63;;;20.05;;
65033;SDS011;51601;51.356;12.458;2023-10-19T05:38:59;73.97;;;20.13;;
65033;SDS011;51601;51.356;12.458;2023-10-19T05:43:17;52.38;;;16.85;;
65033;SDS011;51601;51.356;12.458;2023-10-19T05:47:36;65.40;;;19.97;;
65033;SDS011;51601;51.356;12.458;2023-10-19T05:51:56;38.47;;;14.13;;
65033;SDS011;51601;51.356;12.458;2023-10-19T05:56:20;64.57;;;20.30;;
65033;SDS011;51601;51.356;12.458;2023-10-19T06:00:38;56.47;;;17.10;;
65033;SDS011;51601;51.356;12.458;2023-10-19T06:04:58;65.28;;;19.00;;
65033;SDS011;51601;51.356;12.458;2023-10-19T06:09:17;75.35;;;21.48;;
65033;SDS011;51601;51.356;12.458;2023-10-19T06:13:35;65.30;;;18.20;;
65033;SDS011;51601;51.356;12.458;2023-10-19T06:17:53;54.65;;;18.35;;
65033;SDS011;51601;51.356;12.458;2023-10-19T06:22:13;74.93;;;21.42;;
65033;SDS011;51601;51.356;12.458;2023-10-19T06:26:32;35.90;;;12.88;;
65033;SDS011;51601;51.356;12.458;2023-10-19T06:30:50;69.37;;;20.70;;
65033;SDS011;51601;51.356;12.458;2023-10-19T06:35:09;64.15;;;19.05;;
65033;SDS011;51601;51.356;12.458;2023-10-19T06:39:28;34.03;;;13.23;;
65033;SDS011;51601;51.356;12.458;2023-10-19T06:43:45;82.27;;;22.37;;
65033;SDS011;51601;51.356;12.458;2023-10-19T06:48:03;52.65;;;16.00;;
65033;SDS011;51601;51.356;12.458;2023-10-19T06:52:24;74.10;;;20.00;;
65033;SDS011;51601;51.356;12.458;2023-10-19T06:56:43;46.90;;;15.83;;
65033;SDS011;51601;51.356;12.458;2023-10-19T07:01:06;65.65;;;18.35;;
65033;SDS011;51601;51.356;12.458;2023-10-19T07:05:24;85.78;;;23.30;;
65033;SDS011;51601;51.356;12.458;2023-10-19T07:09:45;104.47;;;24.58;;
65033;SDS011;51601;51.356;12.458;2023-10-19T07:14:05;38.10;;;13.03;;
65033;SDS011;51601;51.356;12.458;2023-10-19T07:18:24;39.80;;;14.80;;
65033;SDS011;51601;51.356;12.458;2023-10-19T07:22:45;61.42;;;17.90;;
65033;SDS011;51601;51.356;12.458;2023-10-19T07:27:04;73.60;;;22.07;;
65033;SDS011;51601;51.356;12.458;2023-10-19T07:31:29;39.88;;;12.80;;
65033;SDS011;51601;51.356;12.458;2023-10-19T07:35:49;82.93;;;24.20;;
65033;SDS011;51601;51.356;12.458;2023-10-19T07:40:10;71.93;;;23.30;;
65033;SDS011;51601;51.356;12.458;2023-10-19T07:44:31;94.55;;;26.30;;
65033;SDS011;51601;51.356;12.458;2023-10-19T07:48:51;59.50;;;18.63;;
65033;SDS011;51601;51.356;12.458;2023-10-19T07:53:10;64.20;;;20.60;;
65033;SDS011;51601;51.356;12.458;2023-10-19T07:57:28;89.23;;;25.10;;
65033;SDS011;51601;51.356;12.458;2023-10-19T08:01:46;94.63;;;24.17;;
65033;SDS011;51601;51.356;12.458;2023-10-19T08:06:06;82.28;;;25.25;;
65033;SDS011;51601;51.356;12.458;2023-10-19T08:10:26;64.37;;;22.23;;
65033;SDS011;51601;51.356;12.458;2023-10-19T08:14:44;68.30;;;21.27;;
65033;SDS011;51601;51.356;12.458;2023-10-19T08:19:02;67.90;;;21.63;;
65033;SDS011;51601;51.356;12.458;2023-10-19T08:23:21;70.40;;;24.17;;
65033;SDS011;51601;51.356;12.458;2023-10-19T08:27:44;61.05;;;22.88;;
65033;SDS011;51601;51.356;12.458;2023-10-19T08:32:05;39.78;;;14.32;;
65033;SDS011;51601;51.356;12.458;2023-10-19T08:36:23;56.33;;;19.35;;
65033;SDS011;51601;51.356;12.458;2023-10-19T08:40:46;56.20;;;21.97;;
65033;SDS011;51601;51.356;12.458;2023-10-19T08:45:09;57.17;;;21.25;;
65033;SDS011;51601;51.356;12.458;2023-10-19T08:49:30;49.17;;;17.50;;
65033;SDS011;51601;51.356;12.458;2023-10-19T08:53:48;27.33;;;12.10;;
65033;SDS011;51601;51.356;12.458;2023-10-19T08:58:07;48.38;;;19.95;;
65033;SDS011;51601;51.356;12.458;2023-10-19T09:02:27;25.27;;;10.85;;
65033;SDS011;51601;51.356;12.458;2023-10-19T09:06:45;48.23;;;18.73;;
65033;SDS011;51601;51.356;12.458;2023-10-19T09:11:06;44.78;;;20.20;;
65033;SDS011;51601;51.356;12.458;2023-10-19T09:15:29;20.25;;;9.27;;
65033;SDS011;51601;51.356;12.458;2023-10-19T09:19:48;39.85;;;17.77;;
65033;SDS011;51601;51.356;12.458;2023-10-19T09:24:06;26.47;;;11.87;;
65033;SDS011;51601;51.356;12.458;2023-10-19T09:28:27;30.77;;;14.18;;
65033;SDS011;51601;51.356;12.458;2023-10-19T09:32:47;24.90;;;10.23;;
65033;SDS011;51601;51.356;12.458;2023-10-19T09:37:07;37.43;;;18.23;;
65033;SDS011;51601;51.356;12.458;2023-10-19T09:41:25;33.53;;;15.05;;
65033;SDS011;51601;51.356;12.458;2023-10-19T09:45:48;28.75;;;13.50;;
65033;SDS011;51601;51.356;12.458;2023-10-19T09:50:12;32.97;;;16.43;;
65033;SDS011;51601;51.356;12.458;2023-10-19T09:54:33;31.38;;;16.95;;
65033;SDS011;51601;51.356;12.458;2023-10-19T09:59:03;24.95;;;13.77;;
65033;SDS011;51601;51.356;12.458;2023-10-19T10:03:41;28.63;;;14.88;;
65033;SDS011;51601;51.356;12.458;2023-10-19T10:12:51;27.00;;;15.23;;
65033;SDS011;51601;51.356;12.458;2023-10-19T10:17:10;25.80;;;16.10;;
65033;SDS011;51601;51.356;12.458;2023-10-19T10:21:36;23.17;;;14.50;;
65033;SDS011;51601;51.356;12.458;2023-10-19T10:25:56;21.73;;;11.32;;
65033;SDS011;51601;51.356;12.458;2023-10-19T10:30:16;17.98;;;9.13;;
65033;SDS011;51601;51.356;12.458;2023-10-19T10:34:43;21.57;;;11.60;;
65033;SDS011;51601;51.356;12.458;2023-10-19T10:39:04;25.73;;;13.55;;
65033;SDS011;51601;51.356;12.458;2023-10-19T10:43:23;26.90;;;16.15;;
65033;SDS011;51601;51.356;12.458;2023-10-19T10:47:44;29.58;;;15.48;;
65033;SDS011;51601;51.356;12.458;2023-10-19T10:52:01;12.87;;;6.33;;
65033;SDS011;51601;51.356;12.458;2023-10-19T10:56:20;24.35;;;12.73;;
65033;SDS011;51601;51.356;12.458;2023-10-19T11:00:43;23.33;;;14.30;;
65033;SDS011;51601;51.356;12.458;2023-10-19T11:05:05;24.03;;;14.80;;
65033;SDS011;51601;51.356;12.458;2023-10-19T11:09:29;22.15;;;13.25;;
65033;SDS011;51601;51.356;12.458;2023-10-19T11:14:08;23.67;;;12.68;;
65033;SDS011;51601;51.356;12.458;2023-10-19T11:18:32;24.27;;;13.53;;
65033;SDS011;51601;51.356;12.458;2023-10-19T11:22:54;22.42;;;12.80;;
65033;SDS011;51601;51.356;12.458;2023-10-19T11:27:22;22.52;;;12.95;;
65033;SDS011;51601;51.356;12.458;2023-10-19T11:31:56;23.40;;;13.20;;
65033;SDS011;51601;51.356;12.458;2023-10-19T11:36:21;21.63;;;13.07;;
65033;SDS011;51601;51.356;12.458;2023-10-19T11:40:40;21.30;;;12.88;;
65033;SDS011;51601;51.356;12.458;2023-10-19T11:44:58;19.15;;;11.30;;
65033;SDS011;51601;51.356;12.458;2023-10-19T11:49:16;21.03;;;12.17;;
65033;SDS011;51601;51.356;12.458;2023-10-19T11:53:38;20.27;;;11.60;;
65033;SDS011;51601;51.356;12.458;2023-10-19T11:57:58;18.35;;;9.52;;
65033;SDS011;51601;51.356;12.458;2023-10-19T12:02:16;22.57;;;13.03;;
65033;SDS011;51601;51.356;12.458;2023-10-19T12:06:34;20.88;;;12.45;;
65033;SDS011;51601;51.356;12.458;2023-10-19T12:10:54;19.88;;;11.65;;
65033;SDS011;51601;51.356;12.458;2023-10-19T12:15:10;13.55;;;7.65;;
65033;SDS011;51601;51.356;12.458;2023-10-19T12:19:29;19.67;;;11.60;;
65033;SDS011;51601;51.356;12.458;2023-10-19T12:23:49;24.58;;;12.95;;
65033;SDS011;51601;51.356;12.458;2023-10-19T12:28:12;23.20;;;13.75;;
65033;SDS011;51601;51.356;12.458;2023-10-19T12:32:32;20.97;;;11.87;;
65033;SDS011;51601;51.356;12.458;2023-10-19T12:36:53;23.48;;;13.82;;
65033;SDS011;51601;51.356;12.458;2023-10-19T12:41:14;24.83;;;15.20;;
65033;SDS011;51601;51.356;12.458;2023-10-19T12:45:33;24.50;;;14.47;;
65033;SDS011;51601;51.356;12.458;2023-10-19T12:49:53;22.98;;;14.48;;
65033;SDS011;51601;51.356;12.458;2023-10-19T12:54:11;23.92;;;14.80;;
65033;SDS011;51601;51.356;12.458;2023-10-19T12:58:29;22.92;;;15.10;;
65033;SDS011;51601;51.356;12.458;2023-10-19T13:02:49;26.47;;;14.83;;
65033;SDS011;51601;51.356;12.458;2023-10-19T13:07:08;27.23;;;16.73;;
65033;SDS011;51601;51.356;12.458;2023-10-19T13:16:24;28.80;;;17.13;;
65033;SDS011;51601;51.356;12.458;2023-10-19T13:20:45;25.75;;;16.17;;
65033;SDS011;51601;51.356;12.458;2023-10-19T13:25:04;24.70;;;15.80;;
65033;SDS011;51601;51.356;12.458;2023-10-19T13:29:25;25.13;;;16.00;;
65033;SDS011;51601;51.356;12.458;2023-10-19T13:33:43;27.08;;;16.83;;
65033;SDS011;51601;51.356;12.458;2023-10-19T13:38:02;27.92;;;17.75;;
65033;SDS011;51601;51.356;12.458;2023-10-19T13:42:22;30.52;;;18.02;;
65033;SDS011;51601;51.356;12.458;2023-10-19T13:46:40;30.83;;;17.87;;
65033;SDS011;51601;51.356;12.458;2023-10-19T13:50:58;32.13;;;18.77;;
65033;SDS011;51601;51.356;12.458;2023-10-19T13:55:24;34.15;;;19.95;;
65033;SDS011;51601;51.356;12.458;2023-10-19T13:59:40;30.50;;;19.13;;
65033;SDS011;51601;51.356;12.458;2023-10-19T14:03:58;32.22;;;18.95;;
65033;SDS011;51601;51.356;12.458;2023-10-19T14:08:17;31.60;;;18.52;;
65033;SDS011;51601;51.356;12.458;2023-10-19T14:12:39;31.57;;;18.93;;
65033;SDS011;51601;51.356;12.458;2023-10-19T14:16:59;32.58;;;19.80;;
65033;SDS011;51601;51.356;12.458;2023-10-19T14:21:17;33.67;;;19.60;;
65033;SDS011;51601;51.356;12.458;2023-10-19T14:25:38;32.47;;;19.35;;
65033;SDS011;51601;51.356;12.458;2023-10-19T14:30:00;37.57;;;20.03;;
65033;SDS011;51601;51.356;12.458;2023-10-19T14:34:20;35.17;;;18.95;;
65033;SDS011;51601;51.356;12.458;2023-10-19T14:38:38;36.72;;;19.52;;
65033;SDS011;51601;51.356;12.458;2023-10-19T14:42:56;32.83;;;19.90;;
65033;SDS011;51601;51.356;12.458;2023-10-19T14:47:16;34.47;;;19.60;;
65033;SDS011;51601;51.356;12.458;2023-10-19T14:51:32;30.98;;;18.02;;
65033;SDS011;51601;51.356;12.458;2023-10-19T14:55:50;33.77;;;17.87;;
65033;SDS011;51601;51.356;12.458;2023-10-19T15:00:09;32.47;;;18.27;;
65033;SDS011;51601;51.356;12.458;2023-10-19T15:04:34;31.10;;;17.85;;
65033;SDS011;51601;51.356;12.458;2023-10-19T15:08:54;31.67;;;19.35;;
65033;SDS011;51601;51.356;12.458;2023-10-19T15:13:12;30.77;;;17.07;;
65033;SDS011;51601;51.356;12.458;2023-10-19T15:17:30;33.08;;;18.77;;
65033;SDS011;51601;51.356;12.458;2023-10-19T15:21:49;32.50;;;19.27;;
65033;SDS011;51601;51.356;12.458;2023-10-19T15:26:06;33.37;;;18.47;;
65033;SDS011;51601;51.356;12.458;2023-10-19T15:30:24;35.88;;;21.02;;
65033;SDS011;51601;51.356;12.458;2023-10-19T15:34:42;40.47;;;22.50;;
65033;SDS011;51601;51.356;12.458;2023-10-19T15:39:05;44.07;;;23.20;;
65033;SDS011;51601;51.356;12.458;2023-10-19T15:43:27;44.53;;;22.33;;
65033;SDS011;51601;51.356;12.458;2023-10-19T15:47:46;37.35;;;21.67;;
65033;SDS011;51601;51.356;12.458;2023-10-19T15:52:04;44.28;;;24.13;;
65033;SDS011;51601;51.356;12.458;2023-10-19T15:56:23;44.40;;;24.03;;
65033;SDS011;51601;51.356;12.458;2023-10-19T16:00:43;46.42;;;24.85;;
65033;SDS011;51601;51.356;12.458;2023-10-19T16:05:01;47.78;;;24.58;;
65033;SDS011;51601;51.356;12.458;2023-10-19T16:09:22;50.33;;;25.00;;
65033;SDS011;51601;51.356;12.458;2023-10-19T16:13:41;51.05;;;25.80;;
65033;SDS011;51601;51.356;12.458;2023-10-19T16:18:03;52.90;;;24.98;;
65033;SDS011;51601;51.356;12.458;2023-10-19T16:22:22;51.00;;;25.13;;
65033;SDS011;51601;51.356;12.458;2023-10-19T16:26:40;47.17;;;24.25;;
65033;SDS011;51601;51.356;12.458;2023-10-19T16:31:02;39.28;;;20.83;;
65033;SDS011;51601;51.356;12.458;2023-10-19T16:35:23;43.45;;;23.58;;
65033;SDS011;51601;51.356;12.458;2023-10-19T16:39:41;47.60;;;26.00;;
65033;SDS011;51601;51.356;12.458;2023-10-19T16:43:59;44.85;;;22.98;;
65033;SDS011;51601;51.356;12.458;2023-10-19T16:48:18;36.33;;;18.88;;
65033;SDS011;51601;51.356;12.458;2023-10-19T16:52:38;45.10;;;24.20;;
65033;SDS011;51601;51.356;12.458;2023-10-19T16:56:56;39.70;;;21.02;;
65033;SDS011;51601;51.356;12.458;2023-10-19T17:01:15;39.00;;;22.45;;
65033;SDS011;51601;51.356;12.458;2023-10-19T17:05:33;41.13;;;22.30;;
65033;SDS011;51601;51.356;12.458;2023-10-19T17:09:50;47.80;;;25.70;;
65033;SDS011;51601;51.356;12.458;2023-10-19T17:14:09;42.60;;;24.77;;
65033;SDS011;51601;51.356;12.458;2023-10-19T17:18:26;44.83;;;24.63;;
65033;SDS011;51601;51.356;12.458;2023-10-19T17:22:46;43.93;;;22.63;;
65033;SDS011;51601;51.356;12.458;2023-10-19T17:27:05;43.78;;;23.80;;
65033;SDS011;51601;51.356;12.458;2023-10-19T17:31:24;43.42;;;24.13;;
65033;SDS011;51601;51.356;12.458;2023-10-19T17:35:42;47.70;;;24.83;;
65033;SDS011;51601;51.356;12.458;2023-10-19T17:40:01;45.63;;;24.63;;
65033;SDS011;51601;51.356;12.458;2023-10-19T17:44:21;38.10;;;20.27;;
65033;SDS011;51601;51.356;12.458;2023-10-19T17:48:41;49.37;;;26.40;;
65033;SDS011;51601;51.356;12.458;2023-10-19T17:53:00;47.85;;;24.67;;
65033;SDS011;51601;51.356;12.458;2023-10-19T17:57:20;42.45;;;24.65;;
65033;SDS011;51601;51.356;12.458;2023-10-19T18:01:39;49.75;;;24.60;;
65033;SDS011;51601;51.356;12.458;2023-10-19T18:05:57;46.30;;;24.93;;
65033;SDS011;51601;51.356;12.458;2023-10-19T18:10:18;36.75;;;18.75;;
65033;SDS011;51601;51.356;12.458;2023-10-19T18:14:47;46.78;;;23.55;;
65033;SDS011;51601;51.356;12.458;2023-10-19T18:19:07;47.50;;;25.03;;
65033;SDS011;51601;51.356;12.458;2023-10-19T18:23:25;35.97;;;17.40;;
65033;SDS011;51601;51.356;12.458;2023-10-19T18:27:43;46.17;;;24.75;;
65033;SDS011;51601;51.356;12.458;2023-10-19T18:32:17;45.50;;;24.70;;
65033;SDS011;51601;51.356;12.458;2023-10-19T18:36:51;47.38;;;24.95;;
65033;SDS011;51601;51.356;12.458;2023-10-19T18:41:23;50.88;;;25.45;;
65033;SDS011;51601;51.356;12.458;2023-10-19T18:45:43;48.05;;;25.17;;
65033;SDS011;51601;51.356;12.458;2023-10-19T18:50:10;52.83;;;26.53;;
65033;SDS011;51601;51.356;12.458;2023-10-19T18:54:51;37.05;;;19.58;;
65033;SDS011;51601;51.356;12.458;2023-10-19T18:59:11;49.70;;;26.52;;
65033;SDS011;51601;51.356;12.458;2023-10-19T19:03:29;54.30;;;27.80;;
65033;SDS011;51601;51.356;12.458;2023-10-19T19:07:52;41.40;;;21.80;;
65033;SDS011;51601;51.356;12.458;2023-10-19T19:12:11;43.25;;;22.17;;
65033;SDS011;51601;51.356;12.458;2023-10-19T19:16:29;53.57;;;27.13;;
65033;SDS011;51601;51.356;12.458;2023-10-19T19:20:47;51.75;;;27.23;;
65033;SDS011;51601;51.356;12.458;2023-10-19T19:25:07;59.13;;;28.58;;
65033;SDS011;51601;51.356;12.458;2023-10-19T19:29:26;54.55;;;27.50;;
65033;SDS011;51601;51.356;12.458;2023-10-19T19:33:45;55.37;;;26.40;;
65033;SDS011;51601;51.356;12.458;2023-10-19T19:38:02;60.80;;;28.70;;
65033;SDS011;51601;51.356;12.458;2023-10-19T19:42:22;63.38;;;29.00;;
65033;SDS011;51601;51.356;12.458;2023-10-19T19:46:38;62.73;;;27.73;;
65033;SDS011;51601;51.356;12.458;2023-10-19T19:50:56;51.95;;;24.00;;
65033;SDS011;51601;51.356;12.458;2023-10-19T19:55:15;60.72;;;28.98;;
65033;SDS011;51601;51.356;12.458;2023-10-19T19:59:34;78.33;;;31.37;;
65033;SDS011;51601;51.356;12.458;2023-10-19T20:03:55;80.40;;;32.25;;
65033;SDS011;51601;51.356;12.458;2023-10-19T20:08:12;82.15;;;32.50;;
65033;SDS011;51601;51.356;12.458;2023-10-19T20:12:30;88.30;;;33.22;;
65033;SDS011;51601;51.356;12.458;2023-10-19T20:16:49;101.17;;;35.00;;
65033;SDS011;51601;51.356;12.458;2023-10-19T20:21:09;85.68;;;33.83;;
65033;SDS011;51601;51.356;12.458;2023-10-19T20:25:30;98.95;;;35.63;;
65033;SDS011;51601;51.356;12.458;2023-10-19T20:29:48;79.40;;;32.17;;
65033;SDS011;51601;51.356;12.458;2023-10-19T20:34:08;74.60;;;30.42;;
65033;SDS011;51601;51.356;12.458;2023-10-19T20:38:27;94.78;;;34.35;;
65033;SDS011;51601;51.356;12.458;2023-10-19T20:42:45;87.30;;;32.87;;
65033;SDS011;51601;51.356;12.458;2023-10-19T20:47:03;86.40;;;33.90;;
65033;SDS011;51601;51.356;12.458;2023-10-19T20:51:23;83.72;;;35.30;;
65033;SDS011;51601;51.356;12.458;2023-10-19T20:55:39;62.78;;;27.67;;
65033;SDS011;51601;51.356;12.458;2023-10-19T20:59:58;76.20;;;29.80;;
65033;SDS011;51601;51.356;12.458;2023-10-19T21:04:16;82.85;;;35.33;;
65033;SDS011;51601;51.356;12.458;2023-10-19T21:08:38;89.07;;;34.97;;
65033;SDS011;51601;51.356;12.458;2023-10-19T21:12:58;91.87;;;34.47;;
65033;SDS011;51601;51.356;12.458;2023-10-19T21:17:16;92.22;;;35.67;;
65033;SDS011;51601;51.356;12.458;2023-10-19T21:21:41;66.47;;;27.13;;
65033;SDS011;51601;51.356;12.458;2023-10-19T21:25:59;89.23;;;36.27;;
65033;SDS011;51601;51.356;12.458;2023-10-19T21:30:19;88.47;;;33.95;;
65033;SDS011;51601;51.356;12.458;2023-10-19T21:34:37;89.70;;;35.90;;
65033;SDS011;51601;51.356;12.458;2023-10-19T21:38:57;97.07;;;36.75;;
65033;SDS011;51601;51.356;12.458;2023-10-19T21:43:18;90.20;;;34.17;;
65033;SDS011;51601;51.356;12.458;2023-10-19T21:47:44;90.43;;;36.33;;
65033;SDS011;51601;51.356;12.458;2023-10-19T21:52:02;86.57;;;36.40;;
65033;SDS011;51601;51.356;12.458;2023-10-19T21:56:20;91.00;;;35.80;;
65033;SDS011;51601;51.356;12.458;2023-10-19T22:00:39;87.28;;;35.38;;
65033;SDS011;51601;51.356;12.458;2023-10-19T22:04:59;87.30;;;33.10;;
65033;SDS011;51601;51.356;12.458;2023-10-19T22:09:36;93.17;;;37.40;;
65033;SDS011;51601;51.356;12.458;2023-10-19T22:13:54;100.07;;;37.95;;
65033;SDS011;51601;51.356;12.458;2023-10-19T22:18:13;92.95;;;35.75;;
65033;SDS011;51601;51.356;12.458;2023-10-19T22:22:33;104.28;;;38.22;;
65033;SDS011;51601;51.356;12.458;2023-10-19T22:26:51;87.63;;;34.97;;
65033;SDS011;51601;51.356;12.458;2023-10-19T22:31:12;96.70;;;37.28;;
65033;SDS011;51601;51.356;12.458;2023-10-19T22:35:32;99.40;;;37.03;;
65033;SDS011;51601;51.356;12.458;2023-10-19T22:39:53;96.10;;;36.23;;
65033;SDS011;51601;51.356;12.458;2023-10-19T22:44:12;92.95;;;35.90;;
65033;SDS011;51601;51.356;12.458;2023-10-19T22:48:33;91.22;;;36.88;;
65033;SDS011;51601;51.356;12.458;2023-10-19T22:52:53;94.33;;;37.97;;
65033;SDS011;51601;51.356;12.458;2023-10-19T22:57:10;87.97;;;34.67;;
65033;SDS011;51601;51.356;12.458;2023-10-19T23:01:28;93.97;;;37.05;;
65033;SDS011;51601;51.356;12.458;2023-10-19T23:05:49;96.20;;;36.10;;
65033;SDS011;51601;51.356;12.458;2023-10-19T23:10:11;88.93;;;34.40;;
65033;SDS011;51601;51.356;12.458;2023-10-19T23:14:34;96.13;;;37.00;;
65033;SDS011;51601;51.356;12.458;2023-10-19T23:18:52;99.75;;;37.50;;
65033;SDS011;51601;51.356;12.458;2023-10-19T23:23:10;95.10;;;37.07;;
65033;SDS011;51601;51.356;12.458;2023-10-19T23:27:33;93.18;;;36.50;;
65033;SDS011;51601;51.356;12.458;2023-10-19T23:31:49;90.25;;;36.50;;
65033;SDS011;51601;51.356;12.458;2023-10-19T23:36:07;90.90;;;33.47;;
65033;SDS011;51601;51.356;12.458;2023-10-19T23:40:25;94.97;;;36.13;;
65033;SDS011;51601;51.356;12.458;2023-10-19T23:44:45;89.55;;;35.22;;
65033;SDS011;51601;51.356;12.458;2023-10-19T23:49:05;94.35;;;36.17;;
65033;SDS011;51601;51.356;12.458;2023-10-19T23:53:23;92.80;;;34.53;;
65033;SDS011;51601;51.356;12.458;2023-10-19T23:57:44;95.20;;;36.60;;
